This is the latest recevied weather packets stored in our database for station/object VA3BOO. If no packets are shown the sender has not sent any weather packets the latest 1 day(s).
| Time | Temp. | Humidity | Pressure | Rain* | Wind** | Luminosity | Snow |
|---|---|---|---|---|---|---|---|
| 1778007005 | 22.22° C | 52% | 1002.2 hPa | 0 mm | 1.34 m/s, 251° | 658 W/m² | - |
| 1778006705 | 22.22° C | 52% | 1002.4 hPa | 0 mm | 1.34 m/s, 239° | 642 W/m² | - |
| 1778006405 | 22.22° C | 53% | 1002.3 hPa | 0 mm | 1.34 m/s, 232° | 746 W/m² | - |
| 1778006105 | 21.67° C | 54% | 1002.3 hPa | 0 mm | 1.34 m/s, 229° | 691 W/m² | - |
| 1778005805 | 21.11° C | 54% | 1002.3 hPa | 0 mm | 1.34 m/s, 205° | 726 W/m² | - |
| 1778005505 | 21.11° C | 57% | 1002.4 hPa | 0 mm | 0.89 m/s, 228° | 383 W/m² | - |
| 1778005205 | 20.56° C | 58% | 1002.2 hPa | 0 mm | 1.34 m/s, 230° | 493 W/m² | - |
| 1778004904 | 20.56° C | 56% | 1002.3 hPa | 0 mm | 1.34 m/s, 209° | 347 W/m² | - |
| 1778004604 | 20.56° C | 57% | 1002.3 hPa | 0 mm | 1.34 m/s, 214° | 419 W/m² | - |
| 1778004305 | 20.56° C | 56% | 1002.1 hPa | 0 mm | 1.34 m/s, 210° | 568 W/m² | - |
| 1778004005 | 20° C | 57% | 1002 hPa | 0 mm | 1.34 m/s, 260° | 752 W/m² | - |
| 1778003704 | 20° C | 59% | 1002.1 hPa | 0 mm | 1.34 m/s, 273° | 540 W/m² | - |
| 1778003404 | 20° C | 59% | 1002.3 hPa | 0 mm | 1.34 m/s, 250° | 411 W/m² | - |
| 1778003105 | 19.44° C | 60% | 1002.3 hPa | 0 mm | 0.89 m/s, 224° | 917 W/m² | - |
| 1778002805 | 20° C | 60% | 1002.2 hPa | 0 mm | 0.89 m/s, 233° | 281 W/m² | - |
| 1778002505 | 20° C | 60% | 1002.2 hPa | 0 mm | 0.89 m/s, 246° | 347 W/m² | - |
| 1778002204 | 20° C | 59% | 1002.2 hPa | 0 mm | 1.34 m/s, 244° | 349 W/m² | - |
| 1778001905 | 18.89° C | 65% | 1002.2 hPa | 0 mm | 1.34 m/s, 257° | 596 W/m² | - |
| 1778001605 | 18.33° C | 64% | 1002.3 hPa | 0 mm | 0.89 m/s, 294° | 730 W/m² | - |
| 1778001305 | 17.22° C | 67% | 1002.2 hPa | 0 mm | 0.89 m/s, 260° | 355 W/m² | - |
| 1778001005 | 16.67° C | 68% | 1002.3 hPa | 0 mm | 0.89 m/s, 224° | 313 W/m² | - |
| 1778000705 | 16.67° C | 68% | 1002.5 hPa | 0 mm | 0.89 m/s, 243° | 98 W/m² | - |
| 1778000405 | 16.67° C | 68% | 1002.5 hPa | 0 mm | 1.34 m/s, 242° | 70 W/m² | - |
| 1778000105 | 16.67° C | 68% | 1002.5 hPa | 0 mm | 1.34 m/s, 233° | 73 W/m² | - |
| 1777999804 | 16.67° C | 67% | 1002.4 hPa | 0 mm | 1.34 m/s, 234° | 64 W/m² | - |
* Rain latest hour (hover to see other rain measurements)
** Current wind speed in m/s (hover to see current wind gust speed)